createdAt,value
2023-02-16T00:02:10.793Z,2.00
2023-02-16T00:04:37.963Z,3.75
2023-02-16T00:07:06.088Z,11.75
2023-02-16T00:09:33.157Z,2.00
2023-02-16T00:12:00.253Z,0.75
2023-02-16T00:14:28.006Z,4.75
2023-02-16T00:16:55.567Z,11.75
2023-02-16T00:19:24.585Z,3.00
2023-02-16T00:21:53.656Z,3.00
2023-02-16T00:24:23.119Z,6.25
2023-02-16T00:26:50.575Z,29.25
2023-02-16T00:29:20.841Z,3.50
2023-02-16T00:31:48.100Z,3.25
2023-02-16T00:34:30.857Z,16.75
2023-02-16T00:36:59.362Z,2.00
2023-02-16T00:39:28.115Z,1.75
2023-02-16T00:41:57.914Z,4.25
2023-02-16T00:44:31.052Z,1.00
2023-02-16T00:47:01.555Z,9.50
2023-02-16T00:49:28.652Z,8.00
2023-02-16T00:51:57.388Z,2.75
2023-02-16T00:54:24.246Z,22.50
2023-02-16T00:56:53.499Z,11.25
2023-02-16T00:59:23.222Z,16.25
2023-02-16T01:01:50.487Z,1.25
2023-02-16T01:04:20.688Z,12.00
2023-02-16T01:06:47.397Z,10.50
2023-02-16T01:09:17.292Z,1.50
2023-02-16T01:11:44.143Z,42.75
2023-02-16T01:14:13.797Z,32.33
2023-02-16T01:16:43.353Z,6.25
2023-02-16T01:19:11.815Z,10.75
2023-02-16T01:21:38.728Z,3.25
2023-02-16T01:24:06.711Z,0.75
2023-02-16T01:26:38.639Z,6.75
2023-02-16T01:29:05.404Z,3.75
2023-02-16T01:31:33.584Z,6.50
2023-02-16T01:34:00.430Z,0.00
2023-02-16T01:36:31.685Z,7.25
2023-02-16T01:38:58.563Z,4.25
2023-02-16T01:41:45.437Z,1.00
2023-02-16T01:44:16.531Z,16.67
2023-02-16T01:46:51.962Z,7.50
2023-02-16T01:49:20.495Z,1.50
2023-02-16T01:51:56.771Z,1.00
2023-02-16T01:54:39.092Z,8.50
2023-02-16T01:57:21.459Z,5.25
2023-02-16T02:00:15.138Z,1.50
2023-02-16T02:02:47.010Z,7.00
2023-02-16T02:05:27.790Z,12.00
2023-02-16T02:08:00.004Z,14.50
2023-02-16T02:10:34.988Z,13.25
2023-02-16T02:13:08.131Z,6.00
2023-02-16T02:15:35.599Z,4.75
2023-02-16T02:18:04.246Z,18.75
2023-02-16T02:20:46.838Z,18.25
2023-02-16T02:23:30.726Z,7.00
2023-02-16T02:26:45.004Z,4.50
2023-02-16T02:29:39.020Z,21.75
2023-02-16T02:32:17.817Z,32.00
2023-02-16T02:35:00.067Z,42.33
2023-02-16T02:37:36.770Z,19.00
2023-02-16T02:40:12.038Z,51.67
2023-02-16T02:42:44.386Z,37.00
2023-02-16T02:45:18.724Z,12.50
2023-02-16T02:47:48.198Z,442.00
2023-02-16T02:50:56.028Z,13.75
2023-02-16T02:53:23.161Z,41.67
2023-02-16T02:55:51.772Z,44.67
2023-02-16T02:58:22.905Z,47.50
2023-02-16T03:00:53.042Z,12.50
2023-02-16T03:03:24.318Z,24.00
2023-02-16T03:05:55.633Z,432.00
2023-02-16T03:08:27.101Z,43.50
2023-02-16T03:10:58.506Z,446.00
2023-02-16T03:13:30.505Z,14.75
2023-02-16T03:16:03.206Z,28.00
2023-02-16T03:18:34.170Z,948.60
2023-02-16T03:21:03.281Z,847.67
2023-02-16T03:23:31.162Z,743.25
2023-02-16T03:25:57.863Z,41.50
2023-02-16T03:28:28.779Z,749.50
2023-02-16T03:30:56.907Z,42.50
2023-02-16T03:33:26.099Z,46.33
2023-02-16T03:35:53.851Z,446.67
2023-02-16T03:38:22.526Z,43.33
2023-02-16T03:40:52.233Z,27.25
2023-02-16T03:43:19.371Z,38.33
2023-02-16T03:45:46.232Z,42.00
2023-02-16T03:48:14.435Z,24.00
2023-02-16T03:50:42.862Z,41.67
2023-02-16T03:53:09.704Z,769.20
2023-02-16T03:55:38.555Z,37.50
2023-02-16T03:58:06.923Z,34.25
2023-02-16T04:00:35.432Z,33.50
2023-02-16T04:03:02.992Z,51.67
2023-02-16T04:05:30.201Z,435.00
2023-02-16T04:07:58.768Z,42.25
2023-02-16T04:10:25.701Z,45.33
2023-02-16T04:12:52.610Z,44.00
2023-02-16T04:15:21.539Z,43.00
2023-02-16T04:17:49.078Z,52.67
2023-02-16T04:20:18.038Z,48.00
2023-02-16T04:22:45.579Z,59.00
2023-02-16T04:25:15.967Z,867.67
2023-02-16T04:27:44.838Z,58.33
2023-02-16T04:30:14.625Z,47.33
2023-02-16T04:32:41.532Z,41.75
2023-02-16T04:35:08.937Z,57.67
2023-02-16T04:37:36.124Z,34.25
2023-02-16T04:40:04.006Z,69.50
2023-02-16T04:42:32.519Z,64.25
2023-02-16T04:44:59.391Z,56.00
2023-02-16T04:47:26.548Z,61.00
2023-02-16T04:49:53.879Z,196.00
2023-02-16T04:52:20.790Z,66.00
2023-02-16T04:54:47.892Z,773.75
2023-02-16T04:57:15.156Z,61.33
2023-02-16T04:59:43.856Z,467.33
2023-02-16T05:02:11.135Z,866.25
2023-02-16T05:04:38.329Z,64.00
2023-02-16T05:07:05.569Z,54.00
2023-02-16T05:09:32.713Z,39.67
2023-02-16T05:11:59.597Z,53.75
2023-02-16T05:14:28.798Z,51.50
2023-02-16T05:16:57.572Z,40.67
2023-02-16T05:19:24.701Z,862.40
2023-02-16T05:21:51.495Z,57.00
2023-02-16T05:24:18.406Z,63.00
2023-02-16T05:26:45.789Z,167.00
2023-02-16T05:29:12.715Z,1274.25
2023-02-16T05:31:39.933Z,359.67
2023-02-16T05:34:08.576Z,474.25
2023-02-16T05:36:35.485Z,364.50
2023-02-16T05:39:02.557Z,730.67
2023-02-16T05:41:29.384Z,76.25
2023-02-16T05:43:58.692Z,2049.80
2023-02-16T05:46:26.812Z,1188.60
2023-02-16T05:48:53.908Z,1293.60
2023-02-16T05:51:22.290Z,582.50
2023-02-16T05:53:49.170Z,2071.00
2023-02-16T05:56:17.800Z,399.80
2023-02-16T05:58:45.499Z,1987.20
2023-02-16T06:01:12.746Z,382.80
2023-02-16T06:03:39.868Z,1505.20
2023-02-16T06:06:09.110Z,1380.25
2023-02-16T06:08:38.373Z,1554.00
2023-02-16T06:11:06.449Z,1736.00
2023-02-16T06:13:34.239Z,2369.80
2023-02-16T06:16:01.090Z,2249.00
2023-02-16T06:18:28.232Z,1958.60
2023-02-16T06:20:57.232Z,946.60
2023-02-16T06:23:24.143Z,39.67
2023-02-16T06:25:52.859Z,3057.80
2023-02-16T06:28:21.111Z,1581.60
2023-02-16T06:30:48.192Z,1959.75
2023-02-16T06:33:15.044Z,937.60
2023-02-16T06:35:41.842Z,1957.60
2023-02-16T06:38:09.029Z,1882.60
2023-02-16T06:40:35.859Z,2679.20
2023-02-16T06:43:04.820Z,1163.20
2023-02-16T06:45:31.900Z,2727.25
2023-02-16T06:47:58.688Z,431.75
2023-02-16T06:50:25.797Z,1964.00
2023-02-16T06:52:52.715Z,1872.80
2023-02-16T06:55:19.530Z,2901.00
2023-02-16T06:57:46.405Z,2846.60
2023-02-16T07:00:16.933Z,1534.75
2023-02-16T07:02:44.064Z,1475.60
2023-02-16T07:05:10.884Z,442.25
2023-02-16T07:07:37.704Z,1950.60
2023-02-16T07:10:05.029Z,2426.20
2023-02-16T07:12:32.097Z,19.50
2023-02-16T07:14:59.367Z,21.50
2023-02-16T07:17:27.819Z,2147.75
2023-02-16T07:19:54.534Z,18.50
2023-02-16T07:22:21.983Z,1931.50
2023-02-16T07:24:49.024Z,1117.75
2023-02-16T07:27:16.465Z,430.00
2023-02-16T07:29:43.526Z,2908.60
2023-02-16T07:32:10.404Z,2420.40
2023-02-16T07:34:39.691Z,2827.00
2023-02-16T07:37:06.468Z,1643.40
2023-02-16T07:39:33.191Z,341.00
2023-02-16T07:41:59.890Z,3220.00
2023-02-16T07:44:27.072Z,3222.60
2023-02-16T07:46:54.202Z,151.75
2023-02-16T07:49:21.314Z,2790.80
2023-02-16T07:51:49.623Z,3154.80
2023-02-16T07:54:16.805Z,2494.00
2023-02-16T07:56:44.003Z,1914.25
2023-02-16T07:59:10.857Z,606.67
2023-02-16T08:01:38.273Z,2198.00
2023-02-16T08:04:05.542Z,1926.40
2023-02-16T08:06:34.578Z,2610.75
2023-02-16T08:09:03.800Z,2683.00
2023-02-16T08:11:31.799Z,3305.60
2023-02-16T08:13:59.430Z,2692.25
2023-02-16T08:16:28.501Z,3829.60
2023-02-16T08:18:57.283Z,3842.40
2023-02-16T08:21:26.634Z,1607.20
2023-02-16T08:23:55.720Z,2964.75
2023-02-16T08:26:27.142Z,21.25
2023-02-16T08:28:54.497Z,2755.60
2023-02-16T08:31:24.493Z,3488.80
2023-02-16T08:33:52.659Z,3254.00
2023-02-16T08:36:21.053Z,1899.80
2023-02-16T08:38:48.774Z,2160.25
2023-02-16T08:41:15.689Z,20.50
2023-02-16T08:43:44.307Z,3105.75
2023-02-16T08:46:11.148Z,3564.00
2023-02-16T08:48:38.069Z,1555.60
2023-02-16T08:51:05.207Z,1824.40
2023-02-16T08:53:32.638Z,3055.00
2023-02-16T08:56:00.494Z,4.25
2023-02-16T08:58:27.620Z,76.60
2023-02-16T09:00:55.834Z,139.20
2023-02-16T09:03:22.979Z,1509.80
2023-02-16T09:05:52.154Z,2340.50
2023-02-16T09:08:19.359Z,1338.25
2023-02-16T09:10:46.293Z,1009.60
2023-02-16T09:13:13.079Z,2122.60
2023-02-16T09:15:40.186Z,1590.40
2023-02-16T09:18:08.977Z,2236.60
2023-02-16T09:20:37.335Z,270.80
2023-02-16T09:23:04.144Z,2556.40
2023-02-16T09:25:30.948Z,2416.75
2023-02-16T09:27:57.782Z,1011.20
2023-02-16T09:30:24.999Z,1860.60
2023-02-16T09:32:51.946Z,1472.75
2023-02-16T09:35:20.742Z,1188.20
2023-02-16T09:37:47.727Z,1515.40
2023-02-16T09:40:14.775Z,1555.25
2023-02-16T09:42:59.870Z,1377.25
2023-02-16T09:45:27.950Z,2777.75
2023-02-16T09:47:57.820Z,483.60
2023-02-16T09:50:53.898Z,2309.50
2023-02-16T09:53:23.807Z,1854.25
2023-02-16T09:55:58.348Z,1280.25
2023-02-16T09:58:33.309Z,736.75
2023-02-16T10:01:08.162Z,1484.80
2023-02-16T10:03:54.528Z,1915.60
2023-02-16T10:14:48.633Z,2000.60
2023-02-16T10:17:23.990Z,2557.75
2023-02-16T10:19:56.126Z,2156.40
2023-02-16T10:22:31.808Z,3145.25
2023-02-16T10:25:02.589Z,3044.25
2023-02-16T10:27:37.613Z,2297.60
2023-02-16T10:30:13.342Z,2295.00
2023-02-16T10:32:53.971Z,2919.00
2023-02-16T10:35:29.826Z,3412.50
2023-02-16T10:38:07.292Z,2661.00
2023-02-16T10:40:45.641Z,3773.20
2023-02-16T10:43:18.362Z,1475.00
2023-02-16T10:45:52.522Z,3665.80
2023-02-16T10:48:21.659Z,3752.80
2023-02-16T10:50:57.113Z,2276.50
2023-02-16T10:53:35.521Z,3750.25
2023-02-16T10:56:03.103Z,410.00
2023-02-16T10:58:38.701Z,3457.60
2023-02-16T11:01:15.580Z,3403.60
2023-02-16T11:03:46.169Z,2996.20
2023-02-16T11:06:14.919Z,3331.40
2023-02-16T11:08:48.372Z,3332.00
2023-02-16T11:11:16.808Z,2046.25
2023-02-16T11:13:48.376Z,578.60
2023-02-16T11:16:23.378Z,2971.00
2023-02-16T11:18:58.436Z,1692.20
2023-02-16T11:21:44.216Z,1430.40
2023-02-16T11:24:14.308Z,788.25
2023-02-16T11:26:41.383Z,33.00
2023-02-16T11:29:19.991Z,541.80
2023-02-16T11:31:48.721Z,866.50
2023-02-16T11:34:28.945Z,41.50
2023-02-16T11:37:04.286Z,865.50
2023-02-16T11:39:36.311Z,476.60
2023-02-16T11:42:08.226Z,778.00
2023-02-16T11:44:39.122Z,734.80
2023-02-16T11:47:20.560Z,36.00
2023-02-16T11:49:47.718Z,757.60
2023-02-16T11:52:27.518Z,907.40
2023-02-16T11:54:58.715Z,118.60
2023-02-16T11:57:27.529Z,131.00
2023-02-16T11:59:55.858Z,398.00
2023-02-16T12:02:45.864Z,132.40
2023-02-16T12:05:24.893Z,1466.50
2023-02-16T12:08:12.360Z,412.20
2023-02-16T12:10:49.657Z,386.50
2023-02-16T12:13:26.545Z,495.50
2023-02-16T12:16:02.015Z,340.50
2023-02-16T12:18:43.711Z,492.80
2023-02-16T12:21:20.417Z,591.75
2023-02-16T12:23:58.943Z,496.25
2023-02-16T12:26:40.191Z,411.60
2023-02-16T12:29:22.462Z,343.50
2023-02-16T12:32:05.775Z,693.20
2023-02-16T12:34:52.394Z,1309.75
2023-02-16T12:37:26.047Z,53.75
2023-02-16T12:40:03.354Z,784.50
2023-02-16T12:42:49.268Z,417.20
2023-02-16T12:45:19.807Z,62.00
2023-02-16T12:47:52.638Z,85.60
2023-02-16T12:50:24.376Z,12.67
2023-02-16T12:52:57.079Z,126.80
2023-02-16T12:55:29.628Z,682.25
2023-02-16T12:58:04.228Z,158.60
2023-02-16T13:00:41.755Z,276.80
2023-02-16T13:03:21.273Z,763.75
2023-02-16T13:05:59.917Z,436.25
2023-02-16T13:08:33.944Z,413.40
2023-02-16T13:11:08.579Z,939.25
2023-02-16T13:13:36.861Z,305.00
2023-02-16T13:16:27.493Z,59.20
2023-02-16T13:18:56.332Z,48.75
2023-02-16T13:21:50.894Z,579.00
2023-02-16T13:24:30.600Z,1119.00
2023-02-16T13:27:11.023Z,425.80
2023-02-16T13:29:53.580Z,52.75
2023-02-16T13:32:41.564Z,22.50
2023-02-16T13:35:28.337Z,233.00
2023-02-16T13:38:05.410Z,1123.50
2023-02-16T13:41:13.892Z,1129.40
2023-02-16T13:43:43.336Z,14.50
2023-02-16T13:46:17.145Z,1125.75
2023-02-16T13:48:47.941Z,424.80
2023-02-16T13:51:18.462Z,409.25
2023-02-16T13:53:55.014Z,237.75
2023-02-16T13:56:33.329Z,1231.75
2023-02-16T13:59:28.778Z,414.00
2023-02-16T14:01:57.109Z,231.20
2023-02-16T14:05:02.359Z,135.00
2023-02-16T14:07:34.496Z,40.00
2023-02-16T14:10:03.116Z,13.50
2023-02-16T14:12:31.994Z,34.67
2023-02-16T14:15:02.616Z,39.00
2023-02-16T14:17:34.176Z,35.50
2023-02-16T14:20:04.274Z,35.75
2023-02-16T14:22:40.487Z,111.75
2023-02-16T14:25:39.155Z,137.75
2023-02-16T14:28:22.055Z,35.25
2023-02-16T14:30:53.034Z,42.75
2023-02-16T14:33:27.211Z,38.75
2023-02-16T14:36:14.594Z,384.00
2023-02-16T14:38:46.331Z,310.75
2023-02-16T14:41:26.710Z,49.67
2023-02-16T14:43:58.934Z,206.00
2023-02-16T14:46:45.313Z,43.50
2023-02-16T14:49:49.803Z,36.75
2023-02-16T14:52:51.146Z,44.00
2023-02-16T14:55:43.999Z,31.75
2023-02-16T14:58:26.233Z,42.50
2023-02-16T15:00:57.880Z,19.00
2023-02-16T15:03:26.847Z,389.75
2023-02-16T15:05:57.290Z,42.00
2023-02-16T15:08:28.088Z,44.50
2023-02-16T15:10:54.930Z,41.25
2023-02-16T15:13:27.115Z,39.50
2023-02-16T15:15:56.418Z,379.75
2023-02-16T15:18:27.332Z,32.50
2023-02-16T15:20:56.132Z,21.75
2023-02-16T15:23:25.370Z,39.50
2023-02-16T15:25:55.556Z,30.50
2023-02-16T15:28:26.361Z,22.00
2023-02-16T15:30:56.651Z,28.50
2023-02-16T15:33:33.098Z,44.25
2023-02-16T15:36:02.805Z,25.00
2023-02-16T15:38:31.948Z,42.50
2023-02-16T15:41:01.153Z,46.75
2023-02-16T15:43:34.459Z,46.75
2023-02-16T15:46:03.782Z,395.25
2023-02-16T15:48:32.897Z,383.50
2023-02-16T15:51:11.758Z,289.00
2023-02-16T15:53:50.041Z,39.67
2023-02-16T15:56:27.832Z,36.25
2023-02-16T15:58:58.601Z,562.75
2023-02-16T16:01:31.861Z,297.75
2023-02-16T16:04:05.128Z,2.75
2023-02-16T16:06:34.743Z,561.00
2023-02-16T16:09:02.365Z,307.25
2023-02-16T16:11:29.603Z,299.25
2023-02-16T16:13:58.139Z,34.50
2023-02-16T16:16:25.112Z,33.75
2023-02-16T16:18:53.776Z,24.25
2023-02-16T16:21:24.997Z,36.75
2023-02-16T16:23:58.256Z,652.75
2023-02-16T16:26:26.970Z,38.25
2023-02-16T16:28:54.606Z,384.50
2023-02-16T16:31:42.166Z,380.25
2023-02-16T16:34:30.088Z,43.25
2023-02-16T16:36:59.193Z,34.75
2023-02-16T16:39:28.735Z,327.60
2023-02-16T16:42:20.840Z,377.25
2023-02-16T16:44:57.184Z,570.50
2023-02-16T16:47:29.542Z,624.40
2023-02-16T16:49:58.704Z,298.25
2023-02-16T16:52:37.607Z,401.00
2023-02-16T16:55:31.133Z,948.50
2023-02-16T16:57:59.949Z,46.75
2023-02-16T17:00:29.464Z,20.50
2023-02-16T17:02:59.280Z,34.75
2023-02-16T17:05:26.181Z,25.75
2023-02-16T17:07:53.071Z,29.50
2023-02-16T17:10:22.006Z,312.00
2023-02-16T17:12:52.844Z,23.00
2023-02-16T17:15:34.799Z,27.25
2023-02-16T17:18:05.236Z,20.75
2023-02-16T17:20:32.136Z,40.75
2023-02-16T17:22:59.032Z,48.50
2023-02-16T17:25:26.208Z,57.75
2023-02-16T17:27:52.962Z,35.00
2023-02-16T17:30:20.297Z,40.00
2023-02-16T17:32:47.469Z,33.75
2023-02-16T17:35:15.750Z,51.00
2023-02-16T17:37:42.468Z,45.75
2023-02-16T17:40:12.860Z,30.00
2023-02-16T17:42:39.665Z,50.75
2023-02-16T17:45:06.744Z,48.00
2023-02-16T17:47:34.104Z,34.00
2023-02-16T17:50:01.475Z,51.00
2023-02-16T17:52:30.376Z,40.00
2023-02-16T17:54:57.565Z,48.75
2023-02-16T17:57:24.471Z,54.67
2023-02-16T17:59:51.578Z,37.50
2023-02-16T18:02:18.475Z,41.00
2023-02-16T18:04:45.314Z,14.75
2023-02-16T18:07:12.545Z,11.75
2023-02-16T18:09:41.099Z,13.00
2023-02-16T18:12:09.317Z,22.75
2023-02-16T18:14:38.109Z,9.67
2023-02-16T18:17:05.827Z,10.00
2023-02-16T18:19:33.828Z,39.00
2023-02-16T18:22:01.203Z,7.67
2023-02-16T18:24:28.068Z,40.25
2023-02-16T18:26:56.489Z,29.00
2023-02-16T18:29:23.571Z,39.50
2023-02-16T18:31:50.474Z,6.00
2023-02-16T18:34:17.265Z,4.67
2023-02-16T18:36:44.351Z,11.75
2023-02-16T18:39:11.666Z,9.00
2023-02-16T18:41:38.594Z,22.00
2023-02-16T18:44:07.592Z,18.50
2023-02-16T18:46:34.511Z,36.25
2023-02-16T18:49:03.296Z,27.25
2023-02-16T18:51:32.155Z,29.25
2023-02-16T18:53:59.225Z,10.50
2023-02-16T18:56:26.115Z,27.25
2023-02-16T18:58:52.894Z,11.25
2023-02-16T19:01:28.404Z,11.00
2023-02-16T19:03:55.253Z,37.25
2023-02-16T19:06:22.438Z,1173.75
2023-02-16T19:08:49.323Z,33.25
2023-02-16T19:11:16.024Z,38.50
2023-02-16T19:13:43.766Z,23.75
2023-02-16T19:16:11.763Z,46.50
2023-02-16T19:18:40.291Z,29.75
2023-02-16T19:21:08.670Z,419.67
2023-02-16T19:23:35.614Z,134.75
2023-02-16T19:26:05.789Z,215.75
2023-02-16T19:28:33.217Z,45.00
2023-02-16T19:31:01.634Z,495.40
2023-02-16T19:33:28.517Z,505.00
2023-02-16T19:36:02.784Z,16.00
2023-02-16T19:38:30.117Z,411.00
2023-02-16T19:40:57.484Z,865.40
2023-02-16T19:43:24.601Z,53.80
2023-02-16T19:45:52.076Z,328.00
2023-02-16T19:48:19.117Z,348.60
2023-02-16T19:50:46.271Z,54.00
2023-02-16T19:53:14.698Z,421.20
2023-02-16T19:55:42.236Z,46.00
2023-02-16T19:58:09.291Z,139.25
2023-02-16T20:00:36.926Z,26.25
2023-02-16T20:03:04.435Z,26.50
2023-02-16T20:05:31.809Z,34.25
2023-02-16T20:07:59.076Z,26.50
2023-02-16T20:10:28.553Z,37.00
2023-02-16T20:12:55.750Z,10.00
2023-02-16T20:15:22.526Z,503.60
2023-02-16T20:17:49.244Z,1193.25
2023-02-16T20:20:16.094Z,2221.80
2023-02-16T20:22:43.091Z,402.75
2023-02-16T20:25:10.784Z,2718.00
2023-02-16T20:27:39.770Z,2004.20
2023-02-16T20:30:11.956Z,19.25
2023-02-16T20:32:38.942Z,1039.80
2023-02-16T20:35:07.331Z,18.75
2023-02-16T20:37:34.685Z,1695.00
2023-02-16T20:40:02.499Z,937.20
2023-02-16T20:42:29.356Z,728.20
2023-02-16T20:44:57.907Z,740.80
2023-02-16T20:47:24.804Z,28.00
2023-02-16T20:49:51.619Z,31.80
2023-02-16T20:52:18.747Z,579.80
2023-02-16T20:54:45.590Z,498.50
2023-02-16T20:57:24.967Z,30.25
2023-02-16T20:59:53.145Z,1352.50
2023-02-16T21:02:21.579Z,2591.40
2023-02-16T21:04:48.378Z,967.25
2023-02-16T21:07:15.237Z,49.67
2023-02-16T21:09:42.444Z,36.50
2023-02-16T21:12:09.250Z,555.40
2023-02-16T21:14:37.697Z,2004.25
2023-02-16T21:17:04.633Z,410.60
2023-02-16T21:19:33.094Z,2373.75
2023-02-16T21:22:00.252Z,2658.00
2023-02-16T21:24:27.300Z,982.50
2023-02-16T21:26:54.074Z,3092.00
2023-02-16T21:29:21.133Z,3158.20
2023-02-16T21:31:48.555Z,2938.00
2023-02-16T21:34:15.450Z,2377.00
2023-02-16T21:36:44.178Z,2987.40
2023-02-16T21:39:11.360Z,1311.00
2023-02-16T21:41:38.442Z,2852.00
2023-02-16T21:44:06.815Z,3088.80
2023-02-16T21:46:36.862Z,3366.00
2023-02-16T21:49:04.094Z,2786.20
2023-02-16T21:51:34.715Z,1989.25
2023-02-16T21:54:06.090Z,1751.60
2023-02-16T21:56:36.066Z,1308.20
2023-02-16T21:59:04.419Z,48.00
2023-02-16T22:01:33.819Z,3624.20
2023-02-16T22:04:02.141Z,1818.20
2023-02-16T22:06:31.496Z,2344.20
2023-02-16T22:08:59.418Z,977.25
2023-02-16T22:11:28.065Z,244.25
2023-02-16T22:13:56.261Z,1276.00
2023-02-16T22:16:24.165Z,328.50
2023-02-16T22:18:56.602Z,51.50
2023-02-16T22:21:23.517Z,1534.80
2023-02-16T22:23:50.619Z,2033.00
2023-02-16T22:26:22.007Z,1314.60
2023-02-16T22:28:50.517Z,1824.80
2023-02-16T22:31:19.457Z,3360.00
2023-02-16T22:33:46.291Z,2119.60
2023-02-16T22:36:13.951Z,1972.00
2023-02-16T22:38:41.318Z,2417.40
2023-02-16T22:41:09.070Z,1992.50
2023-02-16T22:43:36.944Z,734.20
2023-02-16T22:46:13.785Z,1161.00
2023-02-16T22:48:41.181Z,1097.20
2023-02-16T22:51:13.932Z,430.00
2023-02-16T22:53:41.634Z,423.40
2023-02-16T22:56:11.948Z,421.50
2023-02-16T22:58:38.848Z,939.60
2023-02-16T23:01:13.192Z,1897.20
2023-02-16T23:03:40.506Z,85.00
2023-02-16T23:06:12.859Z,53.00
2023-02-16T23:08:39.764Z,1009.40
2023-02-16T23:11:06.751Z,1979.75
2023-02-16T23:13:35.705Z,515.75
2023-02-16T23:16:06.717Z,1514.25
2023-02-16T23:18:35.376Z,1069.00
2023-02-16T23:21:07.620Z,1600.60
2023-02-16T23:23:34.781Z,2619.60
2023-02-16T23:26:01.954Z,2831.00
2023-02-16T23:28:28.857Z,2907.00
2023-02-16T23:30:57.139Z,304.25
2023-02-16T23:33:24.833Z,3333.25
2023-02-16T23:35:53.515Z,771.20
2023-02-16T23:38:21.032Z,2974.00
2023-02-16T23:40:55.489Z,1214.20
2023-02-16T23:43:22.332Z,2792.20
2023-02-16T23:45:49.352Z,2173.75
2023-02-16T23:48:16.280Z,812.25
2023-02-16T23:50:43.352Z,3163.00
2023-02-16T23:53:12.282Z,2580.80
2023-02-16T23:55:39.128Z,3723.75
2023-02-16T23:58:06.005Z,1140.60
